Time;durP1;ratioP1;P1;durP2;ratioP2;P2;SDS_P1;SDS_P2;PMS_P1;PMS_P2;Temp;Humidity;BMP_temperature;BMP_pressure;BME280_temperature;BME280_humidity;BME280_pressure;Samples;Min_cycle;Max_cycle;Signal;HPM_P1;HPM_P2
2021/08/19 00:00:17;;;;;;;3.97;1.30;;;17.80;99.90;;;;;;4991447;28;20399;-60
2021/08/19 00:02:43;;;;;;;5.68;1.70;;;17.80;99.90;;;;;;4990395;28;20465;-60
2021/08/19 00:05:09;;;;;;;3.90;1.60;;;17.80;99.90;;;;;;4991360;28;20525;-60
2021/08/19 00:07:35;;;;;;;5.80;1.67;;;17.70;99.90;;;;;;4990733;28;20394;-60
2021/08/19 00:10:00;;;;;;;4.00;1.50;;;17.80;99.90;;;;;;4991454;28;20695;-60
2021/08/19 00:12:26;;;;;;;4.15;1.60;;;17.70;99.90;;;;;;4991096;28;20493;-59
2021/08/19 00:14:52;;;;;;;4.17;1.33;;;17.70;99.90;;;;;;4991142;28;20422;-60
2021/08/19 00:17:18;;;;;;;5.88;1.67;;;17.80;99.90;;;;;;4985841;28;20404;-60
2021/08/19 00:19:43;;;;;;;5.30;1.53;;;17.80;99.90;;;;;;4971955;28;20421;-60
2021/08/19 00:22:09;;;;;;;4.90;1.60;;;17.80;99.90;;;;;;4972216;28;20852;-61
2021/08/19 00:24:35;;;;;;;5.00;1.90;;;17.90;99.90;;;;;;4971171;28;20798;-60
2021/08/19 00:27:00;;;;;;;4.55;1.60;;;17.90;99.90;;;;;;4972425;28;20393;-61
2021/08/19 00:29:26;;;;;;;5.67;1.60;;;17.90;99.90;;;;;;4968801;28;20761;-60
2021/08/19 00:31:52;;;;;;;4.80;1.97;;;17.80;99.90;;;;;;4988266;28;20769;-60
2021/08/19 00:34:18;;;;;;;5.40;1.48;;;17.80;99.90;;;;;;4990895;28;20383;-60
2021/08/19 00:36:44;;;;;;;4.22;1.80;;;17.90;99.90;;;;;;4989555;28;20542;-60
2021/08/19 00:39:09;;;;;;;4.90;1.80;;;17.80;99.90;;;;;;4990690;28;20870;-60
2021/08/19 00:41:36;;;;;;;4.50;1.60;;;17.80;99.90;;;;;;4990002;28;20423;-60
2021/08/19 00:44:02;;;;;;;5.47;1.90;;;17.80;99.90;;;;;;4990791;28;20414;-60
2021/08/19 00:46:32;;;;;;;3.90;1.40;;;17.80;99.90;;;;;;4990140;28;20394;-60
2021/08/19 00:49:11;;;;;;;6.25;1.83;;;17.80;99.90;;;;;;4990033;28;20394;-61
2021/08/19 00:51:39;;;;;;;4.60;1.60;;;17.90;99.90;;;;;;4989405;28;20403;-61
2021/08/19 00:54:08;;;;;;;5.30;1.58;;;17.90;99.90;;;;;;4986261;28;20483;-61
2021/08/19 00:56:38;;;;;;;5.90;1.83;;;17.90;99.90;;;;;;4971168;28;20416;-61
2021/08/19 00:59:15;;;;;;;5.13;1.80;;;18.00;99.90;;;;;;4971627;28;20745;-61
2021/08/19 01:01:41;;;;;;;4.90;1.70;;;17.90;99.90;;;;;;4977008;28;20404;-61
2021/08/19 01:04:10;;;;;;;5.70;1.83;;;18.00;99.90;;;;;;4972945;28;20416;-61
2021/08/19 01:06:36;;;;;;;5.00;2.00;;;18.00;99.90;;;;;;4980093;28;20388;-60
2021/08/19 01:09:07;;;;;;;5.65;2.38;;;18.00;99.90;;;;;;4990294;28;20379;-61
2021/08/19 01:11:34;;;;;;;5.93;2.17;;;17.90;99.90;;;;;;4989562;28;20394;-60
2021/08/19 01:14:00;;;;;;;5.28;2.40;;;17.90;99.90;;;;;;4990217;28;20431;-61
2021/08/19 01:16:28;;;;;;;5.28;2.47;;;17.80;99.90;;;;;;4983816;28;20487;-61
2021/08/19 01:18:54;;;;;;;5.38;2.60;;;17.80;99.90;;;;;;4970650;28;20657;-61
2021/08/19 01:21:21;;;;;;;5.10;2.33;;;17.80;99.90;;;;;;4990421;28;20464;-61
2021/08/19 01:23:46;;;;;;;5.18;2.60;;;17.70;99.90;;;;;;4989508;28;20399;-61
2021/08/19 01:26:17;;;;;;;5.05;2.50;;;17.70;99.90;;;;;;4990143;28;20432;-62
2021/08/19 01:28:44;;;;;;;5.40;2.50;;;17.70;99.90;;;;;;4970645;28;20420;-61
2021/08/19 01:31:22;;;;;;;5.18;2.50;;;17.70;99.90;;;;;;4977392;28;20790;-61
2021/08/19 01:33:48;;;;;;;5.50;2.60;;;17.70;99.90;;;;;;4970794;28;20403;-61
2021/08/19 01:36:15;;;;;;;4.82;2.50;;;17.70;99.90;;;;;;4970349;28;20388;-61
2021/08/19 01:38:42;;;;;;;5.90;2.90;;;17.70;99.90;;;;;;4970636;28;20395;-61
2021/08/19 01:41:08;;;;;;;5.72;2.65;;;17.70;99.90;;;;;;4971274;28;20428;-61
2021/08/19 01:43:38;;;;;;;5.00;2.50;;;17.80;99.90;;;;;;4970446;28;20478;-60
2021/08/19 01:46:08;;;;;;;5.28;2.70;;;17.80;99.90;;;;;;4971208;28;20751;-61
2021/08/19 01:48:35;;;;;;;6.10;2.60;;;17.80;99.90;;;;;;4970913;28;20408;-60
2021/08/19 01:51:02;;;;;;;6.07;2.60;;;17.90;99.90;;;;;;4970591;28;20419;-61
2021/08/19 01:53:27;;;;;;;5.63;2.58;;;17.90;99.90;;;;;;4978379;28;20383;-61
2021/08/19 01:55:54;;;;;;;6.00;3.20;;;17.90;99.90;;;;;;4989329;28;20402;-61
2021/08/19 01:58:20;;;;;;;5.90;3.10;;;17.90;99.90;;;;;;4989752;28;20382;-61
2021/08/19 02:00:47;;;;;;;5.90;2.78;;;17.90;99.90;;;;;;4988943;28;20997;-61
2021/08/19 02:03:13;;;;;;;7.43;2.70;;;17.90;99.90;;;;;;4989469;28;20390;-61
2021/08/19 02:05:38;;;;;;;7.15;3.10;;;17.90;99.90;;;;;;4988788;28;20494;-61
2021/08/19 02:08:08;;;;;;;7.18;2.92;;;17.90;99.90;;;;;;4989610;28;20458;-61
2021/08/19 02:10:35;;;;;;;5.50;2.55;;;17.90;99.90;;;;;;4972167;28;20394;-60
2021/08/19 02:13:00;;;;;;;7.30;2.90;;;17.90;99.90;;;;;;4989363;28;20398;-61
2021/08/19 02:15:26;;;;;;;5.60;2.92;;;17.80;99.90;;;;;;4989478;28;20493;-61
2021/08/19 02:17:52;;;;;;;6.10;3.00;;;17.80;99.90;;;;;;4988906;28;20493;-61
2021/08/19 02:20:17;;;;;;;6.70;3.20;;;17.70;99.90;;;;;;4989236;28;20906;-61
2021/08/19 02:22:44;;;;;;;5.95;2.80;;;17.50;99.90;;;;;;4988443;28;20524;-61
2021/08/19 02:25:10;;;;;;;5.75;2.75;;;17.50;99.90;;;;;;4989187;28;20417;-61
2021/08/19 02:27:35;;;;;;;5.40;2.80;;;17.50;99.90;;;;;;4989164;28;20386;-59
2021/08/19 02:30:01;;;;;;;6.35;2.80;;;17.50;99.90;;;;;;4978097;28;20507;-61
2021/08/19 02:32:27;;;;;;;6.80;2.85;;;17.60;99.90;;;;;;4970168;28;20472;-61
2021/08/19 02:34:52;;;;;;;5.90;2.73;;;17.60;99.90;;;;;;4970055;28;20403;-62
2021/08/19 02:37:21;;;;;;;5.50;2.85;;;17.60;99.90;;;;;;4970245;28;20438;-61
2021/08/19 02:39:48;;;;;;;5.57;2.70;;;17.60;99.90;;;;;;4958806;28;20872;-61
2021/08/19 02:42:14;;;;;;;7.38;2.83;;;17.60;99.90;;;;;;4974570;28;20825;-61
2021/08/19 02:44:39;;;;;;;5.75;3.20;;;17.70;99.90;;;;;;4988680;28;20960;-60
2021/08/19 02:47:06;;;;;;;6.40;3.13;;;17.70;99.90;;;;;;4989460;28;20402;-61
2021/08/19 02:49:32;;;;;;;6.38;3.10;;;17.60;99.90;;;;;;4992551;28;20482;-61
2021/08/19 02:51:59;;;;;;;5.47;2.80;;;17.70;99.90;;;;;;4991831;28;20593;-61
2021/08/19 02:54:24;;;;;;;6.07;3.15;;;17.70;99.90;;;;;;4993135;28;20389;-61
2021/08/19 02:56:51;;;;;;;6.50;2.87;;;17.70;99.90;;;;;;4991802;28;20386;-61
2021/08/19 02:59:18;;;;;;;6.23;2.80;;;17.70;99.90;;;;;;4990232;28;20479;-61
2021/08/19 03:01:43;;;;;;;5.70;3.20;;;17.80;99.90;;;;;;4973621;28;20393;-61
2021/08/19 03:04:09;;;;;;;5.70;3.10;;;17.70;99.90;;;;;;4973780;28;20407;-61
2021/08/19 03:06:35;;;;;;;6.40;3.30;;;17.70;99.90;;;;;;4975195;28;20398;-61
2021/08/19 03:09:00;;;;;;;5.75;3.10;;;17.70;99.90;;;;;;4981060;28;20534;-61
2021/08/19 03:11:26;;;;;;;6.20;3.20;;;17.80;99.90;;;;;;4988250;28;20861;-61
2021/08/19 03:13:53;;;;;;;5.50;2.70;;;17.70;99.90;;;;;;4982344;28;20779;-61
2021/08/19 03:16:19;;;;;;;5.70;2.70;;;17.70;99.90;;;;;;4965588;28;20750;-61
2021/08/19 03:18:44;;;;;;;7.63;2.88;;;17.70;99.90;;;;;;4981046;28;20391;-61
2021/08/19 03:21:10;;;;;;;6.10;2.80;;;17.80;99.90;;;;;;4966232;28;20394;-61
2021/08/19 03:23:36;;;;;;;5.72;3.00;;;17.80;99.90;;;;;;4980923;28;20423;-61
2021/08/19 03:26:04;;;;;;;5.57;2.92;;;17.80;99.90;;;;;;4981069;28;20418;-61
2021/08/19 03:28:30;;;;;;;6.35;3.20;;;17.80;99.90;;;;;;4982361;28;20429;-61
2021/08/19 03:30:57;;;;;;;6.90;2.80;;;17.70;99.90;;;;;;4980866;28;20414;-61
2021/08/19 03:33:22;;;;;;;5.43;3.00;;;17.60;99.90;;;;;;4976857;28;20424;-61
2021/08/19 03:35:48;;;;;;;5.40;2.60;;;17.60;99.90;;;;;;4976276;28;20430;-61
2021/08/19 03:38:14;;;;;;;6.43;2.90;;;17.50;99.90;;;;;;4973195;28;20392;-61
2021/08/19 03:40:39;;;;;;;5.73;2.53;;;17.60;99.90;;;;;;4974917;28;20946;-59
2021/08/19 03:43:05;;;;;;;5.85;2.80;;;17.50;99.90;;;;;;4978512;28;20398;-60
2021/08/19 03:45:31;;;;;;;5.70;2.50;;;17.50;99.90;;;;;;4974444;28;20462;-61
2021/08/19 03:47:56;;;;;;;5.10;2.80;;;17.50;99.90;;;;;;4972120;28;20768;-61
2021/08/19 03:50:23;;;;;;;5.75;2.80;;;17.50;99.90;;;;;;4983924;28;20403;-61
2021/08/19 03:52:49;;;;;;;5.15;2.72;;;17.40;99.90;;;;;;4977716;28;20422;-61
2021/08/19 03:55:15;;;;;;;6.10;2.70;;;17.40;99.90;;;;;;4979926;28;20410;-61
2021/08/19 03:57:41;;;;;;;5.57;2.78;;;17.40;99.90;;;;;;4973833;28;20776;-59
2021/08/19 04:00:07;;;;;;;5.60;2.72;;;17.40;99.90;;;;;;4971828;28;20376;-61
2021/08/19 04:02:33;;;;;;;5.50;2.70;;;17.50;99.90;;;;;;4972675;28;20393;-61
2021/08/19 04:04:59;;;;;;;5.80;2.70;;;17.40;99.90;;;;;;4971938;28;20414;-61
2021/08/19 04:07:25;;;;;;;7.60;3.50;;;17.50;99.90;;;;;;4972153;28;20497;-60
2021/08/19 04:09:50;;;;;;;5.60;2.70;;;17.50;99.90;;;;;;4972126;28;20467;-61
2021/08/19 04:12:16;;;;;;;5.73;2.60;;;17.50;99.90;;;;;;4972865;28;20744;-61
2021/08/19 04:14:42;;;;;;;6.00;2.67;;;17.60;99.90;;;;;;4955406;28;20403;-60
2021/08/19 04:17:08;;;;;;;5.53;2.60;;;17.60;99.90;;;;;;4972465;28;20479;-60
2021/08/19 04:19:33;;;;;;;7.07;3.10;;;17.60;99.90;;;;;;4981110;28;20473;-61
2021/08/19 04:21:59;;;;;;;5.90;3.30;;;17.60;99.90;;;;;;4984146;28;20445;-62
2021/08/19 04:24:25;;;;;;;6.13;3.20;;;17.50;99.90;;;;;;4980805;28;20874;-61
2021/08/19 04:26:50;;;;;;;6.43;2.60;;;17.50;99.90;;;;;;4982806;28;20402;-61
2021/08/19 04:29:16;;;;;;;6.00;3.10;;;17.60;99.90;;;;;;4966334;28;20450;-61
2021/08/19 04:31:42;;;;;;;6.50;2.65;;;17.50;99.90;;;;;;4986494;28;20518;-60
2021/08/19 04:34:07;;;;;;;6.03;2.50;;;17.50;99.90;;;;;;4987249;28;20786;-61
2021/08/19 04:36:33;;;;;;;5.13;2.50;;;17.50;99.90;;;;;;4978023;28;21094;-61
2021/08/19 04:38:59;;;;;;;4.65;2.28;;;17.60;99.90;;;;;;4983478;28;20980;-61
2021/08/19 04:41:25;;;;;;;6.40;2.40;;;17.60;99.90;;;;;;4990883;28;20386;-61
2021/08/19 04:43:50;;;;;;;4.77;2.53;;;17.70;99.90;;;;;;4989717;28;20422;-61
2021/08/19 04:46:16;;;;;;;5.07;2.50;;;17.70;99.90;;;;;;4988444;28;20498;-61
2021/08/19 04:48:42;;;;;;;5.03;2.40;;;17.70;99.90;;;;;;4980996;28;20465;-61
2021/08/19 04:51:07;;;;;;;6.07;3.00;;;17.70;99.90;;;;;;4978739;28;20448;-61
2021/08/19 04:53:33;;;;;;;5.30;2.50;;;17.70;99.90;;;;;;4972974;28;20433;-60
2021/08/19 04:55:59;;;;;;;5.53;2.25;;;17.70;99.90;;;;;;4972753;28;21085;-60
2021/08/19 04:58:27;;;;;;;5.80;2.63;;;17.60;99.90;;;;;;4977394;28;20471;-61
2021/08/19 05:00:52;;;;;;;5.20;2.67;;;17.60;99.90;;;;;;4973304;28;20403;-61
2021/08/19 05:03:18;;;;;;;5.53;2.78;;;17.60;99.90;;;;;;4971805;28;20388;-60
2021/08/19 05:05:44;;;;;;;6.93;2.73;;;17.70;99.90;;;;;;4971252;28;20380;-59
2021/08/19 05:08:10;;;;;;;5.50;2.70;;;18.70;99.90;;;;;;4971412;28;20464;-61
2021/08/19 05:10:35;;;;;;;5.43;2.50;;;17.90;99.90;;;;;;4960525;28;20396;-62
2021/08/19 05:13:01;;;;;;;5.87;2.60;;;17.90;99.90;;;;;;4970716;28;20392;-62
2021/08/19 05:15:27;;;;;;;5.60;2.50;;;18.00;99.90;;;;;;4971643;28;20399;-61
2021/08/19 05:17:52;;;;;;;6.43;2.67;;;18.20;99.90;;;;;;4978326;28;20412;-60
2021/08/19 05:20:18;;;;;;;6.00;2.60;;;18.20;99.90;;;;;;4977224;28;20431;-61
2021/08/19 05:22:44;;;;;;;6.77;2.53;;;18.30;99.90;;;;;;4975359;28;20412;-60
2021/08/19 05:25:10;;;;;;;6.93;2.40;;;18.30;99.90;;;;;;4967033;28;20516;-61
2021/08/19 05:27:36;;;;;;;6.28;2.33;;;18.30;99.90;;;;;;4970955;28;20414;-62
2021/08/19 05:30:01;;;;;;;5.57;2.30;;;18.40;99.90;;;;;;4982153;28;20405;-61
2021/08/19 05:32:27;;;;;;;5.20;2.30;;;18.50;99.90;;;;;;4968702;28;20943;-60
2021/08/19 05:34:53;;;;;;;6.88;2.30;;;18.60;99.90;;;;;;4980658;28;20475;-60
2021/08/19 05:37:18;;;;;;;6.30;2.70;;;18.60;99.90;;;;;;4974743;28;20408;-61
2021/08/19 05:39:44;;;;;;;6.10;2.63;;;18.70;99.90;;;;;;4970259;28;20718;-61
2021/08/19 05:42:09;;;;;;;6.20;2.70;;;18.70;99.90;;;;;;4969548;28;20388;-61
2021/08/19 05:44:36;;;;;;;6.55;2.90;;;18.80;99.90;;;;;;4970654;28;20443;-61
2021/08/19 05:47:05;;;;;;;6.15;3.08;;;18.80;99.90;;;;;;4954844;28;20940;-61
2021/08/19 05:49:41;;;;;;;7.00;2.83;;;18.90;99.90;;;;;;4973503;28;20489;-60
2021/08/19 05:52:07;;;;;;;7.18;3.50;;;18.90;99.90;;;;;;4977186;28;20420;-60
2021/08/19 05:54:35;;;;;;;7.70;3.90;;;18.80;99.90;;;;;;4980447;28;20428;-61
2021/08/19 05:57:01;;;;;;;5.70;3.00;;;18.70;99.90;;;;;;4973316;28;20419;-61
2021/08/19 05:59:28;;;;;;;7.07;3.00;;;18.80;99.90;;;;;;4978555;28;20517;-61
2021/08/19 06:01:54;;;;;;;6.65;3.08;;;18.70;99.90;;;;;;4961350;28;20393;-61
2021/08/19 06:04:20;;;;;;;5.63;3.03;;;18.90;99.90;;;;;;4973956;28;20419;-62
2021/08/19 06:06:46;;;;;;;5.50;3.00;;;19.00;99.90;;;;;;4963317;28;20411;-61
2021/08/19 06:09:13;;;;;;;5.90;3.30;;;19.20;99.90;;;;;;4972648;28;20415;-62
2021/08/19 06:11:39;;;;;;;6.22;3.10;;;19.20;99.90;;;;;;4987106;28;20422;-61
2021/08/19 06:14:05;;;;;;;6.40;3.53;;;19.40;99.90;;;;;;4984541;28;20406;-63
2021/08/19 06:16:30;;;;;;;6.27;3.00;;;19.50;99.90;;;;;;4984668;28;20442;-61
2021/08/19 06:18:57;;;;;;;7.87;3.10;;;19.40;99.90;;;;;;4974114;28;20394;-61
2021/08/19 06:21:23;;;;;;;7.20;3.50;;;19.50;99.90;;;;;;4983669;28;20469;-60
2021/08/19 06:23:49;;;;;;;7.80;3.00;;;19.60;99.90;;;;;;4985268;28;20425;-60
2021/08/19 06:26:15;;;;;;;6.00;2.80;;;19.70;99.90;;;;;;4987936;28;20828;-62
2021/08/19 06:28:40;;;;;;;7.20;2.90;;;19.70;99.90;;;;;;4986882;28;20450;-61
2021/08/19 06:31:06;;;;;;;6.40;2.55;;;19.90;99.90;;;;;;4985039;28;21000;-61
2021/08/19 06:33:32;;;;;;;6.60;2.63;;;20.10;99.90;;;;;;4990204;28;20940;-61
2021/08/19 06:35:57;;;;;;;6.03;2.80;;;20.30;99.90;;;;;;4977128;28;20462;-61
2021/08/19 06:38:23;;;;;;;6.82;2.78;;;20.40;99.90;;;;;;4973801;28;20400;-62
2021/08/19 06:40:49;;;;;;;7.43;2.80;;;20.10;99.90;;;;;;4975387;28;20441;-61
2021/08/19 06:43:15;;;;;;;13.33;3.40;;;19.90;99.90;;;;;;4972103;28;20441;-61
2021/08/19 06:45:40;;;;;;;11.23;3.10;;;20.00;99.90;;;;;;4968265;28;21207;-61
2021/08/19 06:48:06;;;;;;;10.50;3.20;;;20.10;99.90;;;;;;4982924;28;20402;-61
2021/08/19 06:50:32;;;;;;;7.25;3.00;;;20.20;99.90;;;;;;4979681;28;20396;-61
2021/08/19 06:52:58;;;;;;;6.03;2.63;;;20.30;99.90;;;;;;4975767;28;20895;-61
2021/08/19 06:55:24;;;;;;;10.52;3.00;;;20.50;99.90;;;;;;4979886;28;20422;-62
2021/08/19 06:57:50;;;;;;;6.87;3.27;;;20.70;99.90;;;;;;4983277;28;20941;-62
2021/08/19 07:00:15;;;;;;;6.30;3.10;;;20.70;99.90;;;;;;4980557;28;20435;-62
2021/08/19 07:02:41;;;;;;;5.95;2.53;;;20.80;99.90;;;;;;4981549;28;20449;-62
2021/08/19 07:05:07;;;;;;;5.68;2.90;;;20.70;99.90;;;;;;4975773;28;20962;-62
2021/08/19 07:07:34;;;;;;;6.80;2.90;;;20.70;99.90;;;;;;4982991;28;20539;-62
2021/08/19 07:10:01;;;;;;;5.90;2.50;;;20.80;99.90;;;;;;4974727;28;20467;-61
2021/08/19 07:12:27;;;;;;;10.15;3.03;;;20.80;99.90;;;;;;4974764;28;20804;-61
2021/08/19 07:14:53;;;;;;;6.43;3.65;;;20.60;99.90;;;;;;4980545;28;20400;-61
2021/08/19 07:17:18;;;;;;;7.00;2.90;;;20.50;99.90;;;;;;4979794;28;20681;-62
2021/08/19 07:19:44;;;;;;;6.07;2.73;;;20.60;99.90;;;;;;4976109;28;20867;-61
2021/08/19 07:22:10;;;;;;;6.45;2.55;;;20.40;99.90;;;;;;4974292;28;20424;-61
2021/08/19 07:24:36;;;;;;;5.85;2.40;;;20.00;99.90;;;;;;4975850;28;20482;-61
2021/08/19 07:27:02;;;;;;;6.43;2.30;;;19.90;99.90;;;;;;4983040;28;20848;-61
2021/08/19 07:29:28;;;;;;;6.90;2.50;;;20.10;99.90;;;;;;4980375;28;20395;-62
2021/08/19 07:31:53;;;;;;;5.60;2.30;;;20.50;99.90;;;;;;4979107;28;20400;-61
2021/08/19 07:34:19;;;;;;;9.30;2.90;;;20.60;99.90;;;;;;4971694;28;20487;-61
2021/08/19 07:36:44;;;;;;;7.28;2.50;;;20.70;99.90;;;;;;4984101;28;20471;-62
2021/08/19 07:39:10;;;;;;;8.77;2.70;;;20.80;99.90;;;;;;4979319;28;20407;-62
2021/08/19 07:41:36;;;;;;;5.70;2.35;;;20.60;99.90;;;;;;4979514;28;20472;-62
2021/08/19 07:44:02;;;;;;;5.97;2.37;;;20.50;99.90;;;;;;4975392;28;20940;-61
2021/08/19 07:46:29;;;;;;;7.22;2.35;;;20.60;99.90;;;;;;4975165;28;20395;-62
2021/08/19 07:48:56;;;;;;;6.63;2.45;;;20.60;99.90;;;;;;4979095;28;20411;-62
2021/08/19 07:51:23;;;;;;;5.80;2.17;;;20.80;99.90;;;;;;4978251;28;20519;-62
2021/08/19 07:53:49;;;;;;;8.07;2.20;;;20.90;99.90;;;;;;4975328;28;20485;-60
2021/08/19 07:56:15;;;;;;;7.60;2.80;;;21.10;99.90;;;;;;4974103;28;20491;-60
2021/08/19 07:58:40;;;;;;;7.50;2.87;;;20.70;99.90;;;;;;4970353;28;20409;-61
2021/08/19 08:01:06;;;;;;;6.80;2.53;;;20.60;99.90;;;;;;4977015;28;20417;-61
2021/08/19 08:03:33;;;;;;;5.57;2.30;;;20.60;99.90;;;;;;4964365;28;20471;-61
2021/08/19 08:05:58;;;;;;;6.03;2.40;;;20.70;99.90;;;;;;4984370;28;20884;-60
2021/08/19 08:08:24;;;;;;;5.70;2.13;;;20.80;99.90;;;;;;4967811;28;20408;-61
2021/08/19 08:10:50;;;;;;;6.30;2.27;;;20.90;99.90;;;;;;4976645;28;20404;-61
2021/08/19 08:13:16;;;;;;;6.03;2.03;;;21.00;99.90;;;;;;4980449;28;20890;-61
2021/08/19 08:15:42;;;;;;;6.85;2.17;;;21.40;99.90;;;;;;4982738;28;20393;-61
2021/08/19 08:18:14;;;;;;;11.30;2.43;;;21.60;99.90;;;;;;4977907;28;20923;-61
2021/08/19 08:20:39;;;;;;;5.43;2.22;;;21.40;99.90;;;;;;4976329;28;20891;-61
2021/08/19 08:23:05;;;;;;;5.45;2.20;;;21.20;99.90;;;;;;4987041;28;20399;-61
2021/08/19 08:25:31;;;;;;;6.53;2.20;;;21.10;99.90;;;;;;4960140;28;21033;-61
2021/08/19 08:28:08;;;;;;;5.10;2.30;;;21.10;99.90;;;;;;4980649;28;20396;-61
2021/08/19 08:30:35;;;;;;;5.90;2.30;;;21.10;99.90;;;;;;4981642;28;20494;-61
2021/08/19 08:33:01;;;;;;;6.03;2.00;;;21.50;99.90;;;;;;4967734;28;20738;-59
2021/08/19 08:35:30;;;;;;;7.68;2.50;;;21.90;99.90;;;;;;4973645;28;20451;-61
2021/08/19 08:37:56;;;;;;;5.70;2.20;;;22.50;99.90;;;;;;4978044;28;20392;-61
2021/08/19 08:40:23;;;;;;;5.90;2.10;;;22.40;99.90;;;;;;4984747;28;20979;-61
2021/08/19 08:42:50;;;;;;;5.80;2.10;;;22.40;99.90;;;;;;4976631;28;20400;-61
2021/08/19 08:45:17;;;;;;;6.60;2.20;;;22.50;99.90;;;;;;4979789;28;20455;-61
2021/08/19 08:47:45;;;;;;;5.47;2.20;;;22.20;99.90;;;;;;4982292;28;20412;-61
2021/08/19 08:50:11;;;;;;;5.73;1.90;;;22.60;99.90;;;;;;4978494;28;20901;-61
2021/08/19 08:52:39;;;;;;;6.82;1.90;;;23.90;99.90;;;;;;4975695;28;20408;-61
2021/08/19 08:55:05;;;;;;;5.15;1.90;;;24.70;99.90;;;;;;4979379;28;20943;-60
2021/08/19 08:57:35;;;;;;;5.90;2.23;;;24.50;99.90;;;;;;4981845;28;20435;-61
2021/08/19 09:00:02;;;;;;;5.90;2.20;;;24.00;99.90;;;;;;4975218;28;20508;-61
2021/08/19 09:02:28;;;;;;;5.20;2.00;;;23.70;99.90;;;;;;4980907;28;20388;-61
2021/08/19 09:05:25;;;;;;;5.10;1.90;;;23.40;99.90;;;;;;4978350;28;20418;-61
2021/08/19 09:07:56;;;;;;;4.80;1.70;;;23.30;99.90;;;;;;4981022;28;20479;-61
2021/08/19 09:10:25;;;;;;;4.88;1.77;;;22.80;99.90;;;;;;4979795;28;20470;-61
2021/08/19 09:12:52;;;;;;;4.80;1.52;;;22.70;99.90;;;;;;4976776;28;20391;-61
2021/08/19 09:15:20;;;;;;;4.35;1.20;;;22.80;99.90;;;;;;4972562;28;20408;-61
2021/08/19 09:17:51;;;;;;;6.78;1.40;;;22.80;99.90;;;;;;4979967;28;20400;-61
2021/08/19 09:20:18;;;;;;;5.60;1.50;;;22.60;99.90;;;;;;4978576;28;20416;-61
2021/08/19 09:22:59;;;;;;;4.50;1.50;;;22.80;99.90;;;;;;4976486;28;20394;-61
2021/08/19 09:25:30;;;;;;;4.80;1.60;;;23.20;99.90;;;;;;4972343;28;20424;-61
2021/08/19 09:28:09;;;;;;;5.43;1.50;;;23.70;99.90;;;;;;4976589;28;20388;-61
2021/08/19 09:30:39;;;;;;;6.20;1.50;;;23.50;99.90;;;;;;4978864;28;20532;-61
2021/08/19 09:33:07;;;;;;;5.45;1.50;;;23.70;99.90;;;;;;4978122;28;20382;-60
2021/08/19 09:35:34;;;;;;;6.23;1.60;;;23.00;99.90;;;;;;4973793;28;20401;-62
2021/08/19 09:38:14;;;;;;;5.63;1.50;;;24.30;99.90;;;;;;4974170;28;21205;-62
2021/08/19 09:40:40;;;;;;;5.30;1.60;;;24.60;99.90;;;;;;4987948;28;20394;-62
2021/08/19 09:43:06;;;;;;;5.75;1.85;;;24.80;99.90;;;;;;4971545;28;20396;-60
2021/08/19 09:45:43;;;;;;;5.82;1.90;;;24.40;99.90;;;;;;4976536;28;20903;-62
2021/08/19 09:48:11;;;;;;;5.25;1.90;;;24.80;99.90;;;;;;4975251;28;20414;-60
2021/08/19 09:50:37;;;;;;;5.60;1.80;;;24.70;99.90;;;;;;4975810;28;20400;-64
2021/08/19 09:53:24;;;;;;;5.63;1.50;;;24.70;99.90;;;;;;4964437;28;20411;-62
2021/08/19 09:55:52;;;;;;;5.10;1.90;;;24.60;99.90;;;;;;4981734;28;20400;-61
2021/08/19 09:58:30;;;;;;;5.20;1.80;;;23.70;99.90;;;;;;4976111;28;20399;-61
2021/08/19 10:00:55;;;;;;;5.15;1.67;;;23.70;99.90;;;;;;4985253;28;20472;-62
2021/08/19 10:03:21;;;;;;;5.40;1.60;;;23.50;99.90;;;;;;4982824;28;20526;-62
2021/08/19 10:05:47;;;;;;;5.10;1.50;;;23.40;99.90;;;;;;4978727;28;20456;-61
2021/08/19 10:08:13;;;;;;;5.35;1.63;;;23.30;99.90;;;;;;4981398;28;20393;-61
2021/08/19 10:10:42;;;;;;;4.93;1.55;;;23.40;99.90;;;;;;4984603;28;20392;-62
2021/08/19 10:13:11;;;;;;;5.60;1.70;;;23.40;99.90;;;;;;4982647;28;20400;-60
2021/08/19 10:15:39;;;;;;;7.05;2.00;;;23.30;99.90;;;;;;4977440;28;20739;-61
2021/08/19 10:18:06;;;;;;;5.50;1.75;;;23.10;99.90;;;;;;4980944;28;20408;-61
2021/08/19 10:20:37;;;;;;;5.70;1.70;;;22.90;99.90;;;;;;4982826;28;20404;-63
2021/08/19 10:23:05;;;;;;;4.95;1.70;;;23.10;99.90;;;;;;4977991;28;20400;-64
2021/08/19 10:25:31;;;;;;;5.97;1.90;;;23.40;99.90;;;;;;4987158;28;20623;-60
2021/08/19 10:28:11;;;;;;;5.55;1.80;;;23.10;99.90;;;;;;4981652;28;20883;-60
2021/08/19 10:30:55;;;;;;;5.68;2.00;;;22.80;99.90;;;;;;4976523;28;20400;-61
2021/08/19 10:33:41;;;;;;;5.70;1.80;;;22.80;99.90;;;;;;4983047;28;20400;-61
2021/08/19 10:36:10;;;;;;;6.07;1.80;;;22.90;99.90;;;;;;4980691;28;20397;-62
2021/08/19 10:38:36;;;;;;;5.25;2.00;;;22.90;99.90;;;;;;4980655;28;20398;-61
2021/08/19 10:41:01;;;;;;;5.70;2.20;;;22.90;99.90;;;;;;4974462;28;20420;-62
2021/08/19 10:43:37;;;;;;;5.50;2.30;;;22.80;99.90;;;;;;4978934;28;20431;-61
2021/08/19 10:46:08;;;;;;;6.13;2.10;;;22.80;99.90;;;;;;4988832;28;20410;-63
2021/08/19 10:48:47;;;;;;;8.50;2.38;;;22.90;99.90;;;;;;4970951;28;20495;-63
2021/08/19 10:51:14;;;;;;;10.68;3.28;;;23.30;99.90;;;;;;4990598;28;20410;-62
2021/08/19 10:53:40;;;;;;;6.90;2.00;;;23.70;99.90;;;;;;4983717;28;20396;-62
2021/08/19 10:56:06;;;;;;;5.30;1.80;;;23.70;99.90;;;;;;4988376;28;20481;-61
2021/08/19 10:58:37;;;;;;;6.43;2.17;;;23.40;99.90;;;;;;4978243;28;20452;-62
2021/08/19 11:01:18;;;;;;;5.15;1.80;;;23.50;99.90;;;;;;4982182;28;20391;-62
2021/08/19 11:03:44;;;;;;;4.90;1.90;;;23.30;99.90;;;;;;4978701;28;20942;-61
2021/08/19 11:06:14;;;;;;;5.00;1.80;;;23.30;99.90;;;;;;4976262;28;20400;-60
2021/08/19 11:08:45;;;;;;;5.25;1.77;;;23.00;99.90;;;;;;4972045;28;20404;-62
2021/08/19 11:11:13;;;;;;;5.80;1.70;;;23.00;99.90;;;;;;4977350;28;20396;-60
2021/08/19 11:13:40;;;;;;;5.10;1.87;;;22.90;99.90;;;;;;4978948;28;20465;-62
2021/08/19 11:16:11;;;;;;;5.80;2.00;;;23.10;99.90;;;;;;4979365;28;20471;-62
2021/08/19 11:18:40;;;;;;;7.60;1.88;;;23.20;99.90;;;;;;4986578;28;20437;-63
2021/08/19 11:21:09;;;;;;;5.20;1.60;;;23.20;99.90;;;;;;4976771;28;20450;-62
2021/08/19 11:23:40;;;;;;;4.72;1.55;;;23.30;99.90;;;;;;4980038;28;20466;-62
2021/08/19 11:26:16;;;;;;;6.10;1.40;;;23.50;99.90;;;;;;4975121;28;20392;-62
2021/08/19 11:28:48;;;;;;;5.40;1.77;;;23.20;99.90;;;;;;4978541;28;20387;-62
2021/08/19 11:31:24;;;;;;;5.00;1.77;;;23.30;99.90;;;;;;4976196;28;20388;-60
2021/08/19 11:34:00;;;;;;;5.95;1.90;;;23.60;99.90;;;;;;4985269;28;20424;-62
2021/08/19 11:36:27;;;;;;;7.10;2.40;;;23.80;99.90;;;;;;4979075;28;20390;-63
2021/08/19 11:39:02;;;;;;;5.28;1.65;;;24.00;99.90;;;;;;4981682;28;20390;-63
2021/08/19 11:41:29;;;;;;;5.25;1.80;;;23.90;99.90;;;;;;4988765;28;20387;-62
2021/08/19 11:44:06;;;;;;;5.85;1.90;;;23.70;99.90;;;;;;4964286;28;20447;-63
2021/08/19 11:46:33;;;;;;;4.90;1.70;;;23.50;99.90;;;;;;4973381;28;20410;-62
2021/08/19 11:49:10;;;;;;;5.30;2.00;;;23.30;99.90;;;;;;4985583;28;20441;-61
2021/08/19 11:51:38;;;;;;;5.80;1.90;;;23.50;99.90;;;;;;4989873;28;20504;-63
2021/08/19 11:54:17;;;;;;;5.30;1.90;;;23.50;99.90;;;;;;4981942;28;20410;-63
2021/08/19 11:56:47;;;;;;;5.60;1.85;;;23.80;99.90;;;;;;4984545;28;20388;-63
2021/08/19 11:59:18;;;;;;;4.72;1.70;;;24.20;99.90;;;;;;4984770;28;20409;-63
2021/08/19 12:01:51;;;;;;;5.50;1.90;;;24.70;99.90;;;;;;4983271;28;20391;-63
2021/08/19 12:04:31;;;;;;;6.70;2.08;;;25.00;99.90;;;;;;4972110;28;20509;-61
2021/08/19 12:06:58;;;;;;;5.93;2.00;;;24.10;99.90;;;;;;4984844;28;20938;-63
2021/08/19 12:09:26;;;;;;;6.03;1.80;;;25.00;99.90;;;;;;4970273;28;20863;-63
2021/08/19 12:11:52;;;;;;;5.25;1.90;;;25.00;99.90;;;;;;4971273;28;20396;-63
2021/08/19 12:14:24;;;;;;;7.70;2.20;;;24.70;99.90;;;;;;4970283;28;20946;-61
2021/08/19 12:16:52;;;;;;;6.10;2.00;;;24.60;99.90;;;;;;4984966;28;20406;-63
2021/08/19 12:19:20;;;;;;;5.60;1.80;;;24.70;99.90;;;;;;4989196;28;20436;-61
2021/08/19 12:21:52;;;;;;;5.55;2.00;;;24.60;99.90;;;;;;4981126;28;20403;-62
2021/08/19 12:24:31;;;;;;;5.70;2.20;;;24.50;99.90;;;;;;4975234;28;20420;-61
2021/08/19 12:27:16;;;;;;;5.43;2.00;;;24.70;99.90;;;;;;4977150;28;20406;-63
2021/08/19 12:29:48;;;;;;;6.60;1.90;;;24.90;99.90;;;;;;4975584;28;20405;-66
2021/08/19 12:32:25;;;;;;;5.40;2.00;;;24.80;99.90;;;;;;4985515;28;20439;-62
2021/08/19 12:35:04;;;;;;;5.82;1.80;;;24.80;99.90;;;;;;4979231;28;20390;-63
2021/08/19 12:37:31;;;;;;;5.60;2.20;;;24.80;99.90;;;;;;4980803;28;20907;-62
2021/08/19 12:40:06;;;;;;;5.90;1.90;;;25.00;99.90;;;;;;4980157;28;20430;-62
2021/08/19 12:42:36;;;;;;;5.20;1.75;;;24.90;99.90;;;;;;4980828;28;20449;-62
2021/08/19 12:45:10;;;;;;;6.63;2.20;;;24.70;99.90;;;;;;4970977;28;20831;-63
2021/08/19 12:47:45;;;;;;;5.45;1.80;;;24.60;99.90;;;;;;4981841;28;20408;-63